createdAt,value
2023-02-25T00:00:19.280Z,-23295.88
2023-02-25T00:02:23.382Z,-23296.50
2023-02-25T00:04:28.553Z,-23295.69
2023-02-25T00:06:31.214Z,-23293.78
2023-02-25T00:08:34.805Z,-23289.81
2023-02-25T00:10:37.819Z,-23289.19
2023-02-25T00:12:41.013Z,-23288.53
2023-02-25T00:14:43.668Z,-23283.28
2023-02-25T00:16:46.520Z,-23293.47
2023-02-25T00:18:54.711Z,-23288.38
2023-02-25T00:20:57.598Z,-23289.66
2023-02-25T00:23:00.289Z,-23293.31
2023-02-25T00:25:03.145Z,-23296.66
2023-02-25T00:27:06.163Z,-23293.78
2023-02-25T00:29:08.862Z,-23284.72
2023-02-25T00:31:13.357Z,-23295.22
2023-02-25T00:33:16.037Z,-23292.19
2023-02-25T00:35:20.051Z,-23291.56
2023-02-25T00:37:22.646Z,-23297.13
2023-02-25T00:39:36.415Z,-23297.28
2023-02-25T00:41:39.612Z,-23296.50
2023-02-25T00:43:44.147Z,-23300.31
2023-02-25T00:45:46.775Z,-23299.38
2023-02-25T00:47:49.465Z,-23300.00
2023-02-25T00:49:52.500Z,-23299.84
2023-02-25T00:51:59.642Z,-23299.38
2023-02-25T00:54:02.739Z,-23298.41
2023-02-25T00:56:07.693Z,-23296.50
2023-02-25T00:58:10.339Z,-23293.94
2023-02-25T01:00:16.394Z,-23293.94
2023-02-25T01:02:19.212Z,-23292.84
2023-02-25T01:04:21.900Z,-23293.63
2023-02-25T01:06:25.452Z,-23297.78
2023-02-25T01:08:29.626Z,-23294.75
2023-02-25T01:10:33.186Z,-23292.84
2023-02-25T01:12:35.872Z,-23299.38
2023-02-25T01:14:39.016Z,-23296.50
2023-02-25T01:16:42.005Z,-23292.34
2023-02-25T01:18:46.299Z,-23293.31
2023-02-25T01:20:48.962Z,-23293.00
2023-02-25T01:22:51.575Z,-23287.75
2023-02-25T01:24:57.143Z,-23296.19
2023-02-25T01:27:01.705Z,-23286.31
2023-02-25T01:29:08.215Z,-23288.84
2023-02-25T01:31:18.863Z,-23288.22
2023-02-25T01:33:21.611Z,-23292.19
2023-02-25T01:35:24.365Z,-23292.03
2023-02-25T01:37:27.173Z,-23296.50
2023-02-25T01:39:32.126Z,-23301.28
2023-02-25T01:41:37.669Z,-23293.00
2023-02-25T01:43:41.486Z,-23288.38
2023-02-25T01:45:45.419Z,-23288.69
2023-02-25T01:47:52.916Z,-23290.28
2023-02-25T01:49:55.860Z,-23285.03
2023-02-25T01:52:02.947Z,-23284.88
2023-02-25T01:54:10.481Z,-23289.50
2023-02-25T01:56:17.880Z,-23294.09
2023-02-25T01:58:22.633Z,-23282.16
2023-02-25T02:00:27.518Z,-23288.53
2023-02-25T02:02:33.996Z,-23289.81
2023-02-25T02:04:38.536Z,-23285.19
2023-02-25T02:06:43.513Z,-23285.66
2023-02-25T02:08:46.611Z,-23292.03
2023-02-25T02:10:49.249Z,-23288.53
2023-02-25T02:12:51.915Z,-23286.63
2023-02-25T02:14:58.085Z,-23285.50
2023-02-25T02:17:19.903Z,-23284.72
2023-02-25T02:19:33.847Z,-23291.25
2023-02-25T02:21:51.016Z,-23289.81
2023-02-25T02:24:19.963Z,-23285.03
2023-02-25T02:26:54.888Z,-23291.25
2023-02-25T02:29:23.313Z,-23285.81
2023-02-25T02:31:39.643Z,-23284.88
2023-02-25T02:33:52.954Z,-23285.03
2023-02-25T02:36:01.080Z,-23283.44
2023-02-25T02:38:13.265Z,-23283.13
2023-02-25T02:40:22.357Z,-23284.88
2023-02-25T02:42:33.022Z,-23288.38
2023-02-25T02:44:42.969Z,-23281.84
2023-02-25T02:46:51.906Z,-23282.81
2023-02-25T02:48:59.863Z,-23283.44
2023-02-25T02:51:07.305Z,-23279.59
2023-02-25T02:53:14.715Z,-23283.75
2023-02-25T02:55:22.959Z,-23280.56
2023-02-25T02:57:27.971Z,-23281.69
2023-02-25T02:59:34.933Z,-23284.56
2023-02-25T03:01:42.260Z,-23280.72
2023-02-25T03:03:48.515Z,-23280.88
2023-02-25T03:05:54.289Z,-23283.13
2023-02-25T03:08:02.947Z,-23288.38
2023-02-25T03:10:10.030Z,-23286.31
2023-02-25T03:12:13.033Z,-23282.47
2023-02-25T03:14:16.031Z,-23290.13
2023-02-25T03:16:22.533Z,-23287.09
2023-02-25T03:18:32.573Z,-23284.06
2023-02-25T03:20:41.740Z,-23279.94
2023-02-25T03:22:47.814Z,-23286.31
2023-02-25T03:24:54.592Z,-23285.81
2023-02-25T03:26:57.253Z,-23278.97
2023-02-25T03:29:00.310Z,-23280.56
2023-02-25T03:31:07.334Z,-23283.13
2023-02-25T03:33:26.586Z,-23285.97
2023-02-25T03:35:31.657Z,-23282.00
2023-02-25T03:37:39.830Z,-23282.63
2023-02-25T03:39:47.207Z,-23279.28
2023-02-25T03:41:55.294Z,-23280.56
2023-02-25T03:44:00.229Z,-23282.31
2023-02-25T03:46:04.426Z,-23280.56
2023-02-25T03:48:10.074Z,-23275.78
2023-02-25T03:50:16.736Z,-23277.06
2023-02-25T03:52:23.609Z,-23278.97
2023-02-25T03:54:27.591Z,-23279.44
2023-02-25T03:56:30.426Z,-23271.00
2023-02-25T03:58:34.225Z,-23273.72
2023-02-25T04:00:40.206Z,-23276.44
2023-02-25T04:02:44.047Z,-23274.34
2023-02-25T04:04:46.776Z,-23274.19
2023-02-25T04:06:49.723Z,-23276.44
2023-02-25T04:08:52.780Z,-23277.22
2023-02-25T04:10:56.872Z,-23275.78
2023-02-25T04:12:59.520Z,-23271.97
2023-02-25T04:15:02.286Z,-23275.31
2023-02-25T04:17:06.259Z,-23272.75
2023-02-25T04:19:08.893Z,-23273.88
2023-02-25T04:21:27.175Z,-23273.56
2023-02-25T04:23:29.839Z,-23275.94
2023-02-25T04:25:32.471Z,-23275.00
2023-02-25T04:27:36.511Z,-23273.88
2023-02-25T04:29:39.145Z,-23272.91
2023-02-25T04:31:41.941Z,-23276.75
2023-02-25T04:33:49.668Z,-23269.41
2023-02-25T04:35:52.642Z,-23273.72
2023-02-25T04:37:55.413Z,-23276.75
2023-02-25T04:39:58.303Z,-23273.22
2023-02-25T04:42:01.222Z,-23281.84
2023-02-25T04:44:06.560Z,-23277.06
2023-02-25T04:46:09.380Z,-23276.44
2023-02-25T04:48:12.021Z,-23270.69
2023-02-25T04:50:14.757Z,-23272.13
2023-02-25T04:52:17.424Z,-23268.78
2023-02-25T04:54:20.416Z,-23269.72
2023-02-25T04:56:23.601Z,-23269.09
2023-02-25T04:58:26.423Z,-23271.97
2023-02-25T05:00:30.467Z,-23273.72
2023-02-25T05:02:34.870Z,-23270.03
2023-02-25T05:04:38.823Z,-23273.56
2023-02-25T05:06:41.641Z,-23273.88
2023-02-25T05:08:44.305Z,-23267.66
2023-02-25T05:10:47.095Z,-23268.44
2023-02-25T05:12:50.235Z,-23273.22
2023-02-25T05:14:52.941Z,-23271.66
2023-02-25T05:16:56.871Z,-23272.59
2023-02-25T05:18:59.839Z,-23272.28
2023-02-25T05:21:02.692Z,-23265.44
2023-02-25T05:23:05.358Z,-23265.59
2023-02-25T05:25:10.134Z,-23269.09
2023-02-25T05:27:12.994Z,-23270.38
2023-02-25T05:29:16.494Z,-23266.38
2023-02-25T05:31:19.853Z,-23270.03
2023-02-25T05:33:24.397Z,-23265.91
2023-02-25T05:35:26.988Z,-23266.88
2023-02-25T05:37:29.769Z,-23264.47
2023-02-25T05:39:32.390Z,-23269.09
2023-02-25T05:41:35.144Z,-23269.56
2023-02-25T05:43:39.623Z,-23268.63
2023-02-25T05:45:42.270Z,-23270.69
2023-02-25T05:47:44.974Z,-23262.72
2023-02-25T05:49:48.917Z,-23265.59
2023-02-25T05:51:51.952Z,-23265.59
2023-02-25T05:53:54.845Z,-23260.31
2023-02-25T05:55:57.466Z,-23266.88
2023-02-25T05:58:00.125Z,-23267.81
2023-02-25T06:00:04.007Z,-23264.00
2023-02-25T06:02:06.722Z,-23264.47
2023-02-25T06:04:09.333Z,-23264.00
2023-02-25T06:06:14.848Z,-23266.88
2023-02-25T06:08:17.560Z,-23269.41
2023-02-25T06:10:20.310Z,-23273.56
2023-02-25T06:12:22.981Z,-23269.72
2023-02-25T06:14:25.594Z,-23266.53
2023-02-25T06:16:31.873Z,-23266.06
2023-02-25T06:18:37.022Z,-23268.94
2023-02-25T06:20:39.698Z,-23270.22
2023-02-25T06:22:43.865Z,-23269.41
2023-02-25T06:24:46.682Z,-23270.84
2023-02-25T06:26:49.325Z,-23271.00
2023-02-25T06:28:51.898Z,-23268.44
2023-02-25T06:30:54.619Z,-23268.44
2023-02-25T06:32:57.930Z,-23270.53
2023-02-25T06:35:00.647Z,-23271.97
2023-02-25T06:37:03.290Z,-23268.78
2023-02-25T06:39:08.036Z,-23274.50
2023-02-25T06:41:15.396Z,-23265.09
2023-02-25T06:43:18.615Z,-23263.84
2023-02-25T06:45:21.653Z,-23266.88
2023-02-25T06:47:24.394Z,-23271.00
2023-02-25T06:49:27.004Z,-23268.44
2023-02-25T06:51:29.687Z,-23263.50
2023-02-25T06:53:32.432Z,-23269.56
2023-02-25T06:55:36.451Z,-23267.19
2023-02-25T06:57:39.097Z,-23260.81
2023-02-25T06:59:41.734Z,-23264.31
2023-02-25T07:01:44.336Z,-23264.78
2023-02-25T07:03:46.945Z,-23265.91
2023-02-25T07:05:49.603Z,-23261.59
2023-02-25T07:07:52.235Z,-23266.53
2023-02-25T07:09:54.901Z,-23273.56
2023-02-25T07:11:59.391Z,-23269.72
2023-02-25T07:14:02.693Z,-23276.75
2023-02-25T07:16:05.796Z,-23275.78
2023-02-25T07:18:08.418Z,-23282.31
2023-02-25T07:20:12.327Z,-23282.47
2023-02-25T07:22:16.376Z,-23283.13
2023-02-25T07:24:18.995Z,-23290.28
2023-02-25T07:26:22.299Z,-23295.88
2023-02-25T07:28:26.553Z,-23300.00
2023-02-25T07:30:29.241Z,-23303.03
2023-02-25T07:32:32.017Z,-23303.50
2023-02-25T07:34:34.822Z,-23304.78
2023-02-25T07:36:38.025Z,-23302.72
2023-02-25T07:38:41.313Z,-23303.66
2023-02-25T07:40:43.971Z,-23297.78
2023-02-25T07:42:46.587Z,-23309.09
2023-02-25T07:44:51.819Z,-23306.06
2023-02-25T07:46:54.426Z,-23309.88
2023-02-25T07:48:57.049Z,-23306.69
2023-02-25T07:51:05.836Z,-23300.00
2023-02-25T07:53:08.489Z,-23299.53
2023-02-25T07:55:12.064Z,-23297.47
2023-02-25T07:57:14.725Z,-23324.84
2023-02-25T07:59:17.329Z,-23357.00
2023-02-25T08:01:24.989Z,-23346.00
2023-02-25T08:03:27.917Z,-23357.00
2023-02-25T08:05:30.591Z,-23361.75
2023-02-25T08:07:33.166Z,-23375.13
2023-02-25T08:09:35.789Z,-23355.41
2023-02-25T08:11:38.927Z,-23347.13
2023-02-25T08:13:42.382Z,-23343.78
2023-02-25T08:15:45.362Z,-23374.16
2023-02-25T08:17:51.810Z,-23380.69
2023-02-25T08:19:54.372Z,-23382.28
2023-02-25T08:21:56.978Z,-23364.63
2023-02-25T08:24:00.528Z,-23357.31
2023-02-25T08:26:03.905Z,-23347.75
2023-02-25T08:28:06.663Z,-23365.44
2023-02-25T08:30:10.937Z,-23341.41
2023-02-25T08:32:13.707Z,-23401.19
2023-02-25T08:34:17.999Z,-23367.50
2023-02-25T08:36:22.177Z,-23367.50
2023-02-25T08:38:24.768Z,-23343.31
2023-02-25T08:40:27.452Z,-23380.38
2023-02-25T08:42:30.537Z,-23341.72
2023-02-25T08:44:33.165Z,-23319.59
2023-02-25T08:46:36.049Z,-23324.53
2023-02-25T08:48:38.687Z,-23336.94
2023-02-25T08:50:42.664Z,-23339.50
2023-02-25T08:52:45.753Z,-23325.81
2023-02-25T08:54:48.511Z,-23326.44
2023-02-25T08:56:52.413Z,-23331.69
2023-02-25T08:58:55.627Z,-23329.63
2023-02-25T09:00:58.523Z,-23331.69
2023-02-25T09:03:01.339Z,-23317.38
2023-02-25T09:05:04.452Z,-23325.63
2023-02-25T09:07:08.546Z,-23325.16
2023-02-25T09:09:13.334Z,-23317.84
2023-02-25T09:11:16.163Z,-23308.91
2023-02-25T09:13:18.906Z,-23317.19
2023-02-25T09:15:22.462Z,-23321.03
2023-02-25T09:17:25.069Z,-23314.81
2023-02-25T09:19:27.630Z,-23320.72
2023-02-25T09:21:30.324Z,-23330.56
2023-02-25T09:23:34.330Z,-23326.91
2023-02-25T09:25:39.693Z,-23332.47
2023-02-25T09:27:42.317Z,-23343.78
2023-02-25T09:29:44.973Z,-23335.34
2023-02-25T09:31:47.823Z,-23317.03
2023-02-25T09:33:50.505Z,-23321.34
2023-02-25T09:35:53.667Z,-23329.63
2023-02-25T09:37:56.389Z,-23324.69
2023-02-25T09:40:00.328Z,-23325.31
2023-02-25T09:42:09.401Z,-23332.31
2023-02-25T09:44:15.847Z,-23342.03
2023-02-25T09:46:19.786Z,-23343.63
2023-02-25T09:48:27.511Z,-23395.00
2023-02-25T09:50:35.659Z,-23428.34
2023-02-25T09:52:43.206Z,-23477.53
2023-02-25T09:54:47.163Z,-23473.56
2023-02-25T09:56:51.343Z,-23493.69
2023-02-25T09:58:57.957Z,-23489.72
2023-02-25T10:01:06.288Z,-23527.13
2023-02-25T10:03:19.764Z,-23449.78
2023-02-25T10:05:30.204Z,-23415.31
2023-02-25T10:07:37.226Z,-23366.06
2023-02-25T10:09:47.055Z,-23371.47
2023-02-25T10:11:54.788Z,-23347.28
2023-02-25T10:14:08.928Z,-23350.78
2023-02-25T10:16:25.638Z,-23348.09
2023-02-25T10:18:46.051Z,-23334.06
2023-02-25T10:21:08.730Z,-23338.84
2023-02-25T10:23:25.534Z,-23333.75
2023-02-25T10:25:30.646Z,-23360.66
2023-02-25T10:27:39.628Z,-23333.75
2023-02-25T10:29:49.175Z,-23346.81
2023-02-25T10:31:57.416Z,-23328.03
2023-02-25T10:34:15.263Z,-23343.00
2023-02-25T10:36:21.024Z,-23355.41
2023-02-25T10:38:23.682Z,-23358.91
2023-02-25T10:40:29.223Z,-23360.34
2023-02-25T10:42:32.366Z,-23345.22
2023-02-25T10:44:36.595Z,-23347.75
2023-02-25T10:46:43.610Z,-23339.50
2023-02-25T10:48:54.160Z,-23347.44
2023-02-25T10:51:06.572Z,-23336.78
2023-02-25T10:53:16.000Z,-23342.19
2023-02-25T10:55:32.526Z,-23343.63
2023-02-25T10:57:42.910Z,-23342.19
2023-02-25T10:59:48.025Z,-23339.97
2023-02-25T11:01:51.068Z,-23318.31
2023-02-25T11:03:58.983Z,-23323.25
2023-02-25T11:06:18.681Z,-23335.03
2023-02-25T11:08:30.167Z,-23340.75
2023-02-25T11:10:32.759Z,-23322.63
2023-02-25T11:12:41.926Z,-23336.94
2023-02-25T11:14:44.991Z,-23337.56
2023-02-25T11:16:49.242Z,-23343.78
2023-02-25T11:18:54.325Z,-23332.66
2023-02-25T11:21:00.355Z,-23340.91
2023-02-25T11:23:03.238Z,-23334.41
2023-02-25T11:25:16.981Z,-23342.34
2023-02-25T11:27:30.829Z,-23358.59
2023-02-25T11:29:37.541Z,-23373.22
2023-02-25T11:31:42.393Z,-23381.78
2023-02-25T11:33:51.566Z,-23383.69
2023-02-25T11:35:59.863Z,-23376.72
2023-02-25T11:38:15.279Z,-23380.38
2023-02-25T11:40:24.910Z,-23373.84
2023-02-25T11:42:30.243Z,-23358.59
2023-02-25T11:44:43.303Z,-23347.75
2023-02-25T11:46:50.424Z,-23337.41
2023-02-25T11:49:01.339Z,-23337.75
2023-02-25T11:51:19.671Z,-23341.06
2023-02-25T11:53:32.003Z,-23336.94
2023-02-25T11:55:50.249Z,-23329.31
2023-02-25T11:58:04.257Z,-23343.00
2023-02-25T12:00:22.633Z,-23332.00
2023-02-25T12:02:35.934Z,-23344.09
2023-02-25T12:05:09.620Z,-23358.25
2023-02-25T12:07:37.146Z,-23354.28
2023-02-25T12:10:04.422Z,-23337.41
2023-02-25T12:12:32.365Z,-23346.16
2023-02-25T12:15:23.615Z,-23335.03
2023-02-25T12:17:53.768Z,-23338.84
2023-02-25T12:20:31.765Z,-23348.09
2023-02-25T12:23:02.396Z,-23341.06
2023-02-25T12:25:21.874Z,-23343.00
2023-02-25T12:27:55.386Z,-23350.63
2023-02-25T12:30:22.692Z,-23344.25
2023-02-25T12:32:43.414Z,-23345.06
2023-02-25T12:35:15.414Z,-23339.16
2023-02-25T12:37:33.660Z,-23340.75
2023-02-25T12:39:52.528Z,-23345.53
2023-02-25T12:42:07.662Z,-23344.91
2023-02-25T12:44:37.377Z,-23347.59
2023-02-25T12:46:53.548Z,-23353.81
2023-02-25T12:49:21.886Z,-23348.09
2023-02-25T12:51:41.607Z,-23350.31
2023-02-25T12:53:57.499Z,-23350.00
2023-02-25T12:56:20.582Z,-23321.97
2023-02-25T12:58:44.045Z,-23317.53
2023-02-25T13:01:04.257Z,-23317.19
2023-02-25T13:03:26.012Z,-23319.59
2023-02-25T13:06:08.531Z,-23312.75
2023-02-25T13:08:28.458Z,-23310.19
2023-02-25T13:11:10.475Z,-23307.31
2023-02-25T13:13:46.319Z,-23309.56
2023-02-25T13:16:04.295Z,-23322.13
2023-02-25T13:18:19.827Z,-23306.84
2023-02-25T13:20:37.399Z,-23312.59
2023-02-25T13:22:54.626Z,-23318.31
2023-02-25T13:25:05.166Z,-23306.84
2023-02-25T13:27:26.927Z,-23303.19
2023-02-25T13:30:05.020Z,-23307.97
2023-02-25T13:32:24.060Z,-23302.56
2023-02-25T13:34:40.189Z,-23312.75
2023-02-25T13:37:00.432Z,-23320.72
2023-02-25T13:39:36.567Z,-23323.41
2023-02-25T13:41:56.260Z,-23317.84
2023-02-25T13:44:26.787Z,-23313.06
2023-02-25T13:46:47.503Z,-23304.78
2023-02-25T13:49:06.072Z,-23317.84
2023-02-25T13:51:31.169Z,-23335.03
2023-02-25T13:53:53.393Z,-23319.59
2023-02-25T13:56:19.741Z,-23318.47
2023-02-25T13:58:37.141Z,-23312.75
2023-02-25T14:01:01.736Z,-23308.91
2023-02-25T14:03:19.221Z,-23318.47
2023-02-25T14:05:45.245Z,-23325.47
2023-02-25T14:08:11.711Z,-23326.44
2023-02-25T14:10:28.730Z,-23319.59
2023-02-25T14:12:45.454Z,-23321.34
2023-02-25T14:15:02.045Z,-23325.31
2023-02-25T14:17:21.612Z,-23327.06
2023-02-25T14:19:37.453Z,-23360.66
2023-02-25T14:22:07.137Z,-23332.47
2023-02-25T14:24:16.511Z,-23329.31
2023-02-25T14:26:27.519Z,-23357.94
2023-02-25T14:28:38.453Z,-23345.84
2023-02-25T14:30:53.703Z,-23343.31
2023-02-25T14:33:12.258Z,-23346.00
2023-02-25T14:35:45.974Z,-23331.06
2023-02-25T14:38:02.711Z,-23341.72
2023-02-25T14:40:18.937Z,-23347.28
2023-02-25T14:42:37.272Z,-23340.13
2023-02-25T14:44:46.371Z,-23343.47
2023-02-25T14:46:54.528Z,-23334.06
2023-02-25T14:49:05.112Z,-23349.50
2023-02-25T14:51:39.567Z,-23347.44
2023-02-25T14:53:55.839Z,-23342.19
2023-02-25T14:56:34.538Z,-23343.78
2023-02-25T14:58:54.359Z,-23341.56
2023-02-25T15:01:26.846Z,-23341.88
2023-02-25T15:03:44.798Z,-23334.06
2023-02-25T15:06:13.438Z,-23328.97
2023-02-25T15:08:33.996Z,-23332.97
2023-02-25T15:10:48.258Z,-23339.50
2023-02-25T15:13:23.780Z,-23326.13
2023-02-25T15:15:38.615Z,-23327.38
2023-02-25T15:18:10.306Z,-23333.59
2023-02-25T15:20:33.009Z,-23328.34
2023-02-25T15:22:39.007Z,-23328.50
2023-02-25T15:24:43.151Z,-23321.03
2023-02-25T15:26:48.587Z,-23322.94
2023-02-25T15:28:51.740Z,-23330.25
2023-02-25T15:31:29.922Z,-23321.03
2023-02-25T15:33:36.337Z,-23328.66
2023-02-25T15:35:57.379Z,-23330.25
2023-02-25T15:38:09.050Z,-23331.22
2023-02-25T15:40:44.845Z,-23332.81
2023-02-25T15:42:50.408Z,-23337.25
2023-02-25T15:44:53.588Z,-23325.47
2023-02-25T15:47:24.807Z,-23320.72
2023-02-25T15:49:34.928Z,-23329.63
2023-02-25T15:51:43.727Z,-23320.38
2023-02-25T15:53:49.080Z,-23320.72
2023-02-25T15:55:53.313Z,-23326.91
2023-02-25T15:57:55.977Z,-23324.53
2023-02-25T15:59:58.671Z,-23326.44
2023-02-25T16:02:01.408Z,-23319.59
2023-02-25T16:04:35.920Z,-23318.31
2023-02-25T16:06:41.832Z,-23309.56
2023-02-25T16:08:52.288Z,-23317.19
2023-02-25T16:10:57.238Z,-23317.19
2023-02-25T16:13:01.842Z,-23316.56
2023-02-25T16:15:05.642Z,-23308.59
2023-02-25T16:17:18.531Z,-23307.97
2023-02-25T16:19:25.189Z,-23299.03
2023-02-25T16:21:32.696Z,-23287.56
2023-02-25T16:23:40.202Z,-23285.34
2023-02-25T16:25:57.497Z,-23285.19
2023-02-25T16:28:10.323Z,-23273.41
2023-02-25T16:30:17.098Z,-23260.00
2023-02-25T16:32:28.642Z,-23259.84
2023-02-25T16:34:35.943Z,-23259.22
2023-02-25T16:36:47.840Z,-23263.50
2023-02-25T16:38:58.071Z,-23254.59
2023-02-25T16:41:02.570Z,-23264.31
2023-02-25T16:43:06.555Z,-23272.13
2023-02-25T16:45:10.403Z,-23274.81
2023-02-25T16:47:25.282Z,-23273.22
2023-02-25T16:49:31.861Z,-23272.91
2023-02-25T16:51:38.134Z,-23266.22
2023-02-25T16:53:44.799Z,-23270.84
2023-02-25T16:55:48.542Z,-23273.88
2023-02-25T16:58:08.031Z,-23269.41
2023-02-25T17:00:17.647Z,-23267.97
2023-02-25T17:02:24.783Z,-23268.44
2023-02-25T17:04:30.956Z,-23264.78
2023-02-25T17:06:33.587Z,-23274.81
2023-02-25T17:08:36.688Z,-23268.94
2023-02-25T17:10:46.066Z,-23271.47
2023-02-25T17:12:48.891Z,-23276.59
2023-02-25T17:14:54.049Z,-23268.13
2023-02-25T17:16:56.962Z,-23274.81
2023-02-25T17:19:03.851Z,-23270.03
2023-02-25T17:21:09.419Z,-23267.50
2023-02-25T17:23:15.060Z,-23264.63
2023-02-25T17:25:19.512Z,-23269.41
2023-02-25T17:27:23.279Z,-23261.75
2023-02-25T17:29:35.688Z,-23266.88
2023-02-25T17:31:45.416Z,-23269.25
2023-02-25T17:33:50.541Z,-23272.91
2023-02-25T17:35:57.312Z,-23272.59
2023-02-25T17:38:00.114Z,-23271.47
2023-02-25T17:40:08.197Z,-23269.41
2023-02-25T17:42:33.071Z,-23267.00
2023-02-25T17:44:47.071Z,-23243.56
2023-02-25T17:46:52.649Z,-23230.19
2023-02-25T17:48:58.302Z,-23211.03
2023-02-25T17:51:07.756Z,-23198.88
2023-02-25T17:53:29.437Z,-23200.00
2023-02-25T17:55:35.702Z,-23196.66
2023-02-25T17:57:44.459Z,-23190.75
2023-02-25T17:59:52.138Z,-23184.69
2023-02-25T18:01:58.037Z,-23182.28
2023-02-25T18:04:06.792Z,-23180.06
2023-02-25T18:06:29.329Z,-23183.72
2023-02-25T18:08:33.393Z,-23188.84
2023-02-25T18:11:03.096Z,-23179.25
2023-02-25T18:13:06.316Z,-23184.53
2023-02-25T18:15:19.735Z,-23179.72
2023-02-25T18:17:26.906Z,-23176.53
2023-02-25T18:19:39.434Z,-23181.66
2023-02-25T18:21:43.533Z,-23183.88
2023-02-25T18:23:48.135Z,-23180.38
2023-02-25T18:26:10.993Z,-23181.66
2023-02-25T18:28:15.345Z,-23183.09
2023-02-25T18:30:20.655Z,-23189.78
2023-02-25T18:32:23.417Z,-23181.16
2023-02-25T18:34:27.529Z,-23185.31
2023-02-25T18:36:30.199Z,-23178.75
2023-02-25T18:38:33.601Z,-23189.94
2023-02-25T18:40:40.673Z,-23190.28
2023-02-25T18:42:44.051Z,-23189.00
2023-02-25T18:44:48.450Z,-23186.91
2023-02-25T18:46:51.091Z,-23186.75
2023-02-25T18:48:53.828Z,-23184.34
2023-02-25T18:50:58.604Z,-23187.41
2023-02-25T18:53:01.525Z,-23195.38
2023-02-25T18:55:04.350Z,-23197.28
2023-02-25T18:57:17.496Z,-23195.38
2023-02-25T18:59:20.172Z,-23195.69
2023-02-25T19:01:25.862Z,-23190.91
2023-02-25T19:03:31.300Z,-23191.72
2023-02-25T19:05:34.193Z,-23196.66
2023-02-25T19:07:38.340Z,-23196.66
2023-02-25T19:09:41.547Z,-23196.97
2023-02-25T19:11:44.380Z,-23188.66
2023-02-25T19:13:47.210Z,-23190.09
2023-02-25T19:15:50.040Z,-23192.19
2023-02-25T19:17:52.667Z,-23189.00
2023-02-25T19:19:55.706Z,-23189.63
2023-02-25T19:21:58.403Z,-23189.94
2023-02-25T19:24:02.403Z,-23191.88
2023-02-25T19:26:06.467Z,-23194.25
2023-02-25T19:28:10.216Z,-23190.59
2023-02-25T19:30:15.909Z,-23194.75
2023-02-25T19:32:19.873Z,-23192.50
2023-02-25T19:34:23.149Z,-23195.22
2023-02-25T19:36:27.025Z,-23200.50
2023-02-25T19:38:29.948Z,-23204.97
2023-02-25T19:40:34.622Z,-23198.88
2023-02-25T19:42:37.458Z,-23199.06
2023-02-25T19:44:40.302Z,-23199.53
2023-02-25T19:46:43.057Z,-23197.63
2023-02-25T19:48:45.861Z,-23200.31
2023-02-25T19:50:48.497Z,-23195.69
2023-02-25T19:52:51.858Z,-23200.50
2023-02-25T19:54:54.510Z,-23196.34
2023-02-25T19:56:58.540Z,-23197.94
2023-02-25T19:59:01.238Z,-23197.28
2023-02-25T20:01:06.354Z,-23194.41
2023-02-25T20:03:10.074Z,-23191.53
2023-02-25T20:05:13.022Z,-23196.19
2023-02-25T20:07:16.442Z,-23197.13
2023-02-25T20:09:19.393Z,-23198.09
2023-02-25T20:11:23.345Z,-23196.50
2023-02-25T20:13:27.453Z,-23197.28
2023-02-25T20:15:30.251Z,-23195.38
2023-02-25T20:17:32.918Z,-23196.66
2023-02-25T20:19:35.808Z,-23193.16
2023-02-25T20:21:38.511Z,-23194.75
2023-02-25T20:23:41.693Z,-23199.22
2023-02-25T20:25:44.360Z,-23196.97
2023-02-25T20:27:47.497Z,-23194.25
2023-02-25T20:29:51.557Z,-23196.66
2023-02-25T20:31:54.479Z,-23201.44
2023-02-25T20:33:59.107Z,-23201.13
2023-02-25T20:36:04.642Z,-23189.31
2023-02-25T20:38:23.494Z,-23196.50
2023-02-25T20:40:26.239Z,-23195.06
2023-02-25T20:42:31.485Z,-23203.19
2023-02-25T20:44:34.493Z,-23201.94
2023-02-25T20:46:39.445Z,-23194.25
2023-02-25T20:48:42.377Z,-23198.56
2023-02-25T20:50:45.447Z,-23198.41
2023-02-25T20:52:48.425Z,-23193.94
2023-02-25T20:54:51.118Z,-23188.84
2023-02-25T20:56:53.867Z,-23194.75
2023-02-25T20:58:56.494Z,-23186.75
2023-02-25T21:00:59.066Z,-23184.53
2023-02-25T21:03:03.206Z,-23187.72
2023-02-25T21:05:06.552Z,-23191.38
2023-02-25T21:07:10.312Z,-23184.34
2023-02-25T21:09:12.950Z,-23186.13
2023-02-25T21:11:15.908Z,-23192.19
2023-02-25T21:13:18.667Z,-23182.28
2023-02-25T21:15:21.389Z,-23180.06
2023-02-25T21:17:24.068Z,-23181.31
2023-02-25T21:19:29.061Z,-23180.38
2023-02-25T21:21:36.915Z,-23177.81
2023-02-25T21:23:40.213Z,-23184.34
2023-02-25T21:25:42.854Z,-23185.47
2023-02-25T21:27:45.568Z,-23173.66
2023-02-25T21:29:48.260Z,-23179.72
2023-02-25T21:31:50.986Z,-23179.09
2023-02-25T21:33:53.727Z,-23173.97
2023-02-25T21:35:58.009Z,-23177.50
2023-02-25T21:38:00.676Z,-23173.81
2023-02-25T21:40:04.065Z,-23178.13
2023-02-25T21:42:06.838Z,-23173.97
2023-02-25T21:44:10.557Z,-23179.56
2023-02-25T21:46:16.210Z,-23183.25
2023-02-25T21:48:20.236Z,-23177.16
2023-02-25T21:50:23.438Z,-23173.50
2023-02-25T21:52:27.510Z,-23172.69
2023-02-25T21:54:30.154Z,-23177.81
2023-02-25T21:56:33.289Z,-23170.47
2023-02-25T21:58:36.255Z,-23169.81
2023-02-25T22:00:39.447Z,-23168.88
2023-02-25T22:02:42.201Z,-23168.88
2023-02-25T22:04:47.671Z,-23168.69
2023-02-25T22:06:50.512Z,-23168.22
2023-02-25T22:08:55.866Z,-23172.06
2023-02-25T22:10:58.619Z,-23172.38
2023-02-25T22:13:01.362Z,-23168.69
2023-02-25T22:15:04.572Z,-23173.34
2023-02-25T22:17:07.384Z,-23174.63
2023-02-25T22:19:10.229Z,-23169.81
2023-02-25T22:21:15.546Z,-23172.69
2023-02-25T22:23:18.272Z,-23171.72
2023-02-25T22:25:23.093Z,-23166.00
2023-02-25T22:27:25.930Z,-23168.53
2023-02-25T22:29:28.785Z,-23171.41
2023-02-25T22:31:32.631Z,-23163.09
2023-02-25T22:33:35.401Z,-23161.66
2023-02-25T22:35:38.274Z,-23158.63
2023-02-25T22:37:41.135Z,-23161.66
2023-02-25T22:39:44.151Z,-23154.47
2023-02-25T22:41:48.192Z,-23160.56
2023-02-25T22:43:51.620Z,-23153.84
2023-02-25T22:45:54.646Z,-23159.28
2023-02-25T22:47:57.257Z,-23160.22
2023-02-25T22:49:59.867Z,-23161.03
2023-02-25T22:52:02.540Z,-23154.16
2023-02-25T22:54:05.453Z,-23155.75
2023-02-25T22:56:10.463Z,-23162.63
2023-02-25T22:58:14.475Z,-23158.00
2023-02-25T23:00:18.535Z,-23159.28
2023-02-25T23:02:21.240Z,-23159.28
2023-02-25T23:04:23.923Z,-23156.72
2023-02-25T23:06:42.346Z,-23157.34
2023-02-25T23:08:46.369Z,-23156.88
2023-02-25T23:10:49.395Z,-23156.41
2023-02-25T23:12:52.243Z,-23155.44
2023-02-25T23:14:56.325Z,-23158.63
2023-02-25T23:16:58.956Z,-23158.00
2023-02-25T23:19:03.414Z,-23161.03
2023-02-25T23:21:09.046Z,-23162.16
2023-02-25T23:23:17.361Z,-23162.16
2023-02-25T23:25:20.273Z,-23163.09
2023-02-25T23:27:23.014Z,-23159.59
2023-02-25T23:29:25.647Z,-23159.75
2023-02-25T23:31:31.459Z,-23160.72
2023-02-25T23:33:34.218Z,-23155.44
2023-02-25T23:35:41.432Z,-23156.41
2023-02-25T23:37:44.122Z,-23162.63
2023-02-25T23:39:46.773Z,-23163.44
2023-02-25T23:41:49.670Z,-23161.50
2023-02-25T23:43:53.697Z,-23162.94
2023-02-25T23:45:56.409Z,-23160.22
2023-02-25T23:48:00.493Z,-23165.03
2023-02-25T23:50:03.191Z,-23165.50
2023-02-25T23:52:05.863Z,-23164.38
2023-02-25T23:54:08.534Z,-23162.16
2023-02-25T23:56:13.817Z,-23163.09
2023-02-25T23:58:16.905Z,-23160.41
